Louisville, Ohio
Current Conditions -  °F | °C
As of 6:51 AM on Sunday 23 Nov 2014 (Local Time) from KCAK Reporting Station
Overcast Overcast  
Wind Chill: 37°   Ceiling: 6500
Heat Index: 42°   Visibility: 7mi
Dew Point: 38°   Wind: 8mph
Humidity: 85%   Direction: 180°S
Pressure: 30.05"   Gusts: NA
Location:  40.84°N, 81.26°W
Report Text: KCAK 231151Z 18007KT 7SM FEW040 OVC065 06/03 A3005 RMK AO2 RAE51 SLP184 P0006 60007 70015 T00560033 10083 20056 50000 $
Loading
Personal Weather Stations






























Interactive Weather Map New forecast layout! Learn more

10-Day Weather Forecast

Advertisements
Track Severe Weather on mobile